Hlavní strana
METAR-TAF:

METAR-TAF

Letiště :

Dar es Salaam, Tanzanie

zeměpisná šířka: 06-52S, zeměpisná délka: 039-12E, výška: 55 m

Aktuální stav počasí

Zpráva byla vytvořena před 42 minutami, v 20:00 UTC
vítr z různých směrů 2 kt
Teplota 27°C
Vlhkost vzduchu 89%
Tlak 1011 hPa
Viditelnost 10 km a více
Skoro jasno ve výšce 1300 ft

METAR: HTDA 192000Z VRB02KT 9999 FEW013 27/25 Q1011 NOSIG

Čas: 23:42 (20:42 UTC)

Předpověď počasí

Zpráva byla vytvořena před 3 hodinami a 42 minutami, v 17:00 UTC
Předpověď platná od 19 v 18 UTC do 20 v 24 UTC
Severovýchodní vítr 5 kt
Viditelnost 10 km a více
Polojasno ve výšce 1400 ft
Změna
od 20 v 05 UTC do 20 v 08 UTC
Severoseverovýchodní vítr 15 kt
Oblačno až skoro zataženo ve výšce 2000 ft

TAF: HTDA 191700Z 1918/2024 05005KT 9999 SCT014 BECMG 2005/2008 02015KT BKN020 FEW021C

Stav a předpovědi počasí z více než 4 000 letišť (zprávy METAR a TAF).

Červené a žluté tečky na mapě představují dostupné meteorologické stanice.

Když kurzor umístíte na tečku, zobrazí se název stanice.

Pak kliknutím zobrazíte stav a předpověď počasí.

Chcete-li změnit mapu, kliknutím na zelené tlačítko se znaménkem +mapu přiblížíte, kliknutím na zelené tlačítko se znaménkem – mapu oddálíte a kliknutím na zelené šipky přejdete na sousední mapy.


METAR-TAF: